Time;durP1;ratioP1;P1;durP2;ratioP2;P2;SDS_P1;SDS_P2;PMS_P1;PMS_P2;Temp;Humidity;BMP_temperature;BMP_pressure;BME280_temperature;BME280_humidity;BME280_pressure;Samples;Min_cycle;Max_cycle;Signal;HPM_P1;HPM_P2
2021/01/17 02:24:07;;;;;;;28.20;16.60;;;;;;;;;;4989496;23;20058;-90
2021/01/17 02:26:38;;;;;;;;;;;;;;;;;;4959958;29;20024;-92
2021/01/17 02:29:05;;;;;;;32.00;16.77;;;;;;;;;;4959570;29;20353;-91
2021/01/17 02:31:34;;;;;;;30.60;16.73;;;;;;;;;;4942389;29;20467;-91
2021/01/17 02:39:55;;;;;;;28.52;15.80;;;;;;;;;;4959568;28;20054;-92
2021/01/17 02:42:25;;;;;;;32.42;17.23;;;;;;;;;;4959465;29;20115;-93
2021/01/17 08:40:57;;;;;;;70.07;35.83;;;;;;;;;;1022571;23;20236;31
2021/01/17 08:43:39;;;;;;;74.85;34.00;;;;;;;;;;4921210;29;20324;-92
2021/01/17 08:46:05;;;;;;;74.22;34.55;;;;;;;;;;4905558;29;20450;-94
2021/01/17 08:48:31;;;;;;;66.85;31.75;;;;;;;;;;4922646;29;20024;-91
2021/01/17 09:02:30;;;;;;;45.50;23.30;;;;;;;;;;4993619;23;20142;-92
2021/01/17 09:04:57;;;;;;;56.80;30.73;;;;;;;;;;4960755;28;20023;-90
2021/01/17 09:10:11;;;;;;;56.95;28.38;;;;;;;;;;4984203;23;20146;-91
2021/01/17 09:12:37;;;;;;;89.25;38.58;;;;;;;;;;4931049;29;20031;-90
2021/01/17 10:06:33;;;;;;;44.60;23.98;;;;;;;;;;3670083;23;20050;-77
2021/01/17 10:08:59;;;;;;;54.78;25.85;;;;;;;;;;4958225;28;20055;-80
2021/01/17 10:17:28;;;;;;;30.23;17.90;;;;;;;;;;5039419;23;20073;-81
2021/01/17 10:19:56;;;;;;;53.25;27.58;;;;;;;;;;4959699;29;20035;-83
2021/01/17 10:22:22;;;;;;;41.55;21.02;;;;;;;;;;4942327;29;20031;-83
2021/01/17 10:24:51;;;;;;;44.53;22.52;;;;;;;;;;4959636;29;20059;-82
2021/01/17 10:27:41;;;;;;;47.55;23.55;;;;;;;;;;4961588;29;20042;-81
2021/01/17 10:30:31;;;;;;;46.33;23.58;;;;;;;;;;4954429;29;20090;-83
2021/01/17 10:33:34;;;;;;;42.75;21.45;;;;;;;;;;4959691;29;20027;-84
2021/01/17 10:39:33;;;;;;;32.30;17.53;;;;;;;;;;4926027;29;20079;-81
2021/01/17 10:49:39;;;;;;;38.97;21.80;;;;;;;;;;5289722;23;20054;-80
2021/01/17 10:55:20;;;;;;;45.45;25.10;;;;;;;;;;4993946;23;20359;-84
2021/01/17 10:57:53;;;;;;;51.00;28.35;;;;;;;;;;4937091;29;20118;-85
2021/01/17 11:46:08;;;;;;;30.50;17.48;;;;;;;;;;4959253;28;20505;-85
2021/01/17 12:54:23;;;;;;;89.32;33.72;;;;;;;;;;1119207;23;20242;-77
2021/01/17 14:05:15;;;;;;;67.25;33.33;;;;;;;;;;4960384;28;20114;-93
2021/01/17 14:10:27;;;;;;;53.67;29.10;;;;;;;;;;4960205;28;20066;-94
2021/01/17 14:12:53;;;;;;;92.72;40.85;;;;;;;;;;4959262;28;20346;-94
2021/01/17 14:15:22;;;;;;;70.47;35.30;;;;;;;;;;4943734;29;20429;-91
2021/01/17 14:17:49;;;;;;;79.55;37.25;;;;;;;;;;4960494;29;20421;-93
2021/01/17 14:20:15;;;;;;;193.15;70.50;;;;;;;;;;4959687;29;20406;-94
2021/01/17 14:22:41;;;;;;;180.70;71.18;;;;;;;;;;4959451;28;20027;-94
2021/01/17 14:25:08;;;;;;;104.45;52.22;;;;;;;;;;4941780;29;20034;-95
2021/01/17 14:42:01;;;;;;;94.50;50.85;;;;;;;;;;4961030;29;20042;-94
2021/01/17 14:44:27;;;;;;;85.60;48.05;;;;;;;;;;4942930;29;20031;-94
2021/01/17 14:46:54;;;;;;;127.97;65.70;;;;;;;;;;4959347;28;20326;-93
2021/01/17 14:49:21;;;;;;;160.75;87.70;;;;;;;;;;4979091;28;20066;-92
2021/01/17 14:51:47;;;;;;;137.07;73.85;;;;;;;;;;4940713;29;20032;-93
2021/01/17 14:54:15;;;;;;;147.43;79.57;;;;;;;;;;4950773;28;20031;-91
2021/01/17 14:56:43;;;;;;;147.10;82.32;;;;;;;;;;4959689;28;20027;-91
2021/01/17 14:59:10;;;;;;;137.68;75.75;;;;;;;;;;4959331;29;20047;-92
2021/01/17 15:01:36;;;;;;;120.22;62.50;;;;;;;;;;4959178;29;20027;-90
2021/01/17 15:04:03;;;;;;;121.43;60.75;;;;;;;;;;4959545;29;20031;-92
2021/01/17 15:06:29;;;;;;;108.88;58.60;;;;;;;;;;4959532;29;20071;-91
2021/01/17 15:08:56;;;;;;;86.95;46.33;;;;;;;;;;4938489;29;20414;-91
2021/01/17 15:11:23;;;;;;;70.15;38.42;;;;;;;;;;4952938;29;20410;-89
2021/01/17 15:13:50;;;;;;;78.65;42.13;;;;;;;;;;4942040;29;20023;-89
2021/01/17 15:16:18;;;;;;;79.55;41.35;;;;;;;;;;4941881;29;20023;-90
2021/01/17 15:39:26;;;;;;;65.63;29.30;;;;;;;;;;5021253;23;20062;-92
2021/01/17 15:47:28;;;;;;;83.80;36.25;;;;;;;;;;5041499;23;20119;-89
2021/01/17 15:55:30;;;;;;;83.72;41.33;;;;;;;;;;4985658;23;20091;-93
2021/01/17 15:57:56;;;;;;;108.20;51.38;;;;;;;;;;4943235;29;20347;-91
2021/01/17 16:00:22;;;;;;;105.18;52.05;;;;;;;;;;4942646;29;20028;-93
2021/01/17 16:02:48;;;;;;;124.88;57.95;;;;;;;;;;4942852;29;20024;-92
2021/01/17 16:05:15;;;;;;;107.35;54.08;;;;;;;;;;4943269;29;20031;-92
2021/01/17 16:10:37;;;;;;;107.65;50.55;;;;;;;;;;4935257;29;20050;-90
2021/01/17 16:13:03;;;;;;;82.00;38.72;;;;;;;;;;4941014;29;20027;-91
2021/01/17 16:15:30;;;;;;;63.70;34.92;;;;;;;;;;4926380;29;20339;-91
2021/01/17 16:17:56;;;;;;;104.72;58.22;;;;;;;;;;4940110;29;20028;-92
2021/01/17 16:20:22;;;;;;;97.47;56.60;;;;;;;;;;4942767;29;20032;-89
2021/01/17 16:25:51;;;;;;;89.68;52.20;;;;;;;;;;4942521;29;20326;-91
2021/01/17 16:28:19;;;;;;;118.60;65.72;;;;;;;;;;4942659;29;20074;-90
2021/01/17 16:30:51;;;;;;;98.22;56.70;;;;;;;;;;4942288;29;20036;-93
2021/01/17 16:33:17;;;;;;;97.60;51.67;;;;;;;;;;4925589;29;20403;-91
2021/01/17 16:35:43;;;;;;;80.03;44.78;;;;;;;;;;4941850;29;20035;-89
2021/01/17 16:44:17;;;;;;;40.50;23.10;;;;;;;;;;4932301;29;20034;-90
2021/01/17 16:46:43;;;;;;;42.83;23.85;;;;;;;;;;4942314;29;20038;-90
2021/01/17 16:49:09;;;;;;;128.57;72.15;;;;;;;;;;4925692;29;20032;-91
2021/01/17 16:54:39;;;;;;;101.82;54.58;;;;;;;;;;4910735;29;20071;-91
2021/01/17 16:57:05;;;;;;;63.83;36.88;;;;;;;;;;4922814;29;20046;-89
2021/01/17 16:59:32;;;;;;;66.90;36.95;;;;;;;;;;4941849;29;20019;-91
2021/01/17 17:02:01;;;;;;;81.45;42.92;;;;;;;;;;4933818;29;20036;-90
2021/01/17 17:04:29;;;;;;;69.07;36.88;;;;;;;;;;4918054;29;20023;-90
2021/01/17 17:06:56;;;;;;;77.25;45.63;;;;;;;;;;4941800;29;20028;-91
2021/01/17 17:09:22;;;;;;;84.93;49.72;;;;;;;;;;4941819;29;20031;-89
2021/01/17 17:11:48;;;;;;;91.00;53.53;;;;;;;;;;4941463;29;20427;-90
2021/01/17 17:14:14;;;;;;;91.47;46.88;;;;;;;;;;4941794;29;20024;-91
2021/01/17 17:16:41;;;;;;;88.38;46.20;;;;;;;;;;4924748;29;20020;-90
2021/01/17 17:19:07;;;;;;;72.57;38.03;;;;;;;;;;4941948;29;20024;-90
2021/01/17 17:24:55;;;;;;;65.45;39.00;;;;;;;;;;4941839;29;20107;-89
2021/01/17 17:27:22;;;;;;;63.80;31.48;;;;;;;;;;4924577;29;20040;-88
2021/01/17 17:29:49;;;;;;;53.85;29.48;;;;;;;;;;4941315;29;20024;-87
2021/01/17 17:32:15;;;;;;;53.40;28.52;;;;;;;;;;4941141;29;20426;-87
2021/01/17 17:34:43;;;;;;;51.00;27.90;;;;;;;;;;4940813;29;20032;-89
2021/01/17 17:40:24;;;;;;;50.15;27.92;;;;;;;;;;4968719;23;20373;-88
2021/01/17 17:42:50;;;;;;;44.05;23.75;;;;;;;;;;4960271;29;20031;-89
2021/01/17 17:45:16;;;;;;;41.38;24.10;;;;;;;;;;4960049;29;20100;-87
2021/01/17 17:47:42;;;;;;;45.17;26.80;;;;;;;;;;4960065;28;20441;-88
2021/01/17 17:50:09;;;;;;;50.97;28.92;;;;;;;;;;4960381;29;20027;-87
2021/01/17 17:55:39;;;;;;;59.05;29.15;;;;;;;;;;4941185;29;20050;-89
2021/01/17 17:58:15;;;;;;;68.25;34.88;;;;;;;;;;4941051;29;20024;-88
2021/01/17 18:03:35;;;;;;;79.90;40.30;;;;;;;;;;4941135;29;20055;-88
2021/01/17 18:08:51;;;;;;;92.63;49.20;;;;;;;;;;4940710;29;20047;-89
2021/01/17 18:11:19;;;;;;;95.13;48.13;;;;;;;;;;4940782;29;20034;-88
2021/01/17 18:13:48;;;;;;;100.93;50.10;;;;;;;;;;4940458;29;20024;-88
2021/01/17 18:16:14;;;;;;;104.70;53.42;;;;;;;;;;4940221;29;20052;-87
2021/01/17 18:18:40;;;;;;;92.90;50.42;;;;;;;;;;4923908;29;20076;-88
2021/01/17 18:21:06;;;;;;;97.78;50.63;;;;;;;;;;4940685;29;20043;-87
2021/01/17 18:26:38;;;;;;;98.88;48.85;;;;;;;;;;4940476;29;20043;-88
2021/01/17 18:29:05;;;;;;;105.22;51.38;;;;;;;;;;4939982;29;20411;-87
2021/01/17 18:31:32;;;;;;;95.63;45.67;;;;;;;;;;4923284;29;20043;-88
2021/01/17 18:33:58;;;;;;;100.68;48.95;;;;;;;;;;4940601;29;20433;-87
2021/01/17 18:36:24;;;;;;;129.93;67.45;;;;;;;;;;4940694;29;20028;-87
2021/01/17 18:42:21;;;;;;;87.65;47.15;;;;;;;;;;4937693;29;20430;-87
2021/01/17 18:44:48;;;;;;;63.80;34.92;;;;;;;;;;4940012;29;20067;-87
2021/01/17 18:47:14;;;;;;;68.30;36.03;;;;;;;;;;4940477;29;20056;-87
2021/01/17 18:49:40;;;;;;;85.72;43.70;;;;;;;;;;4939666;29;20030;-87
2021/01/17 18:58:14;;;;;;;85.82;52.30;;;;;;;;;;4940562;29;20071;-88
2021/01/17 19:00:40;;;;;;;90.18;54.75;;;;;;;;;;4942356;29;20031;-88
2021/01/17 19:03:06;;;;;;;85.65;50.72;;;;;;;;;;4943928;29;20028;-89
2021/01/17 19:05:32;;;;;;;89.82;53.88;;;;;;;;;;4944091;29;20028;-88
2021/01/17 19:07:58;;;;;;;84.45;47.58;;;;;;;;;;4943574;29;20119;-88
2021/01/17 19:10:25;;;;;;;106.30;51.45;;;;;;;;;;4943657;29;20028;-89
2021/01/17 19:12:51;;;;;;;113.38;59.22;;;;;;;;;;4943702;29;20399;-87
2021/01/17 19:15:18;;;;;;;148.88;63.53;;;;;;;;;;4943733;29;20020;-88
2021/01/17 19:20:39;;;;;;;307.90;116.88;;;;;;;;;;4944143;29;20453;-88
2021/01/17 19:23:07;;;;;;;173.38;73.35;;;;;;;;;;4943566;29;20031;-88
2021/01/17 19:25:33;;;;;;;149.35;60.67;;;;;;;;;;4943268;29;20101;-89
2021/01/17 19:33:28;;;;;;;130.60;58.47;;;;;;;;;;4943771;29;20078;-88
2021/01/17 19:35:55;;;;;;;84.05;42.45;;;;;;;;;;4926677;29;20300;-88
2021/01/17 19:38:21;;;;;;;76.20;37.25;;;;;;;;;;4943420;29;20418;-88
2021/01/17 19:40:47;;;;;;;61.58;32.22;;;;;;;;;;4943404;29;20028;-88
2021/01/17 19:46:00;;;;;;;58.85;31.88;;;;;;;;;;4943595;29;20042;-88
2021/01/17 19:48:27;;;;;;;69.45;37.58;;;;;;;;;;4926473;29;20027;-89
2021/01/17 19:50:54;;;;;;;114.28;53.08;;;;;;;;;;4943302;29;20118;-89
2021/01/17 19:53:20;;;;;;;98.47;51.10;;;;;;;;;;4942955;29;20023;-88
2021/01/17 19:55:48;;;;;;;58.47;33.17;;;;;;;;;;4926591;29;20035;-88
2021/01/17 20:06:39;;;;;;;65.18;40.08;;;;;;;;;;5005439;23;20055;-87
2021/01/17 20:34:40;;;;;;;93.50;49.53;;;;;;;;;;4921135;29;20078;-87
2021/01/17 20:48:11;;;;;;;135.02;65.90;;;;;;;;;;4961808;28;20151;-87
2021/01/17 20:56:49;;;;;;;134.25;59.35;;;;;;;;;;5021638;23;20070;-87
2021/01/17 21:02:10;;;;;;;151.70;68.45;;;;;;;;;;4991884;23;20063;-88
